sensor_id;sensor_type;location;lat;lon;timestamp;pressure;altitude;pressure_sealevel;temperature
67822;BMP180;54434;50.096;20.082;2023-06-05T00:01:01;99416.00;;;9.52
67822;BMP180;54434;50.096;20.082;2023-06-05T00:03:55;99407.00;;;9.50
67822;BMP180;54434;50.096;20.082;2023-06-05T00:06:32;99409.20;;;9.50
67822;BMP180;54434;50.096;20.082;2023-06-05T00:09:08;99409.20;;;9.50
67822;BMP180;54434;50.096;20.082;2023-06-05T00:11:45;99404.40;;;9.42
67822;BMP180;54434;50.096;20.082;2023-06-05T00:14:22;99405.40;;;9.40
67822;BMP180;54434;50.096;20.082;2023-06-05T00:16:58;99403.20;;;9.40
67822;BMP180;54434;50.096;20.082;2023-06-05T00:19:35;99404.20;;;9.40
67822;BMP180;54434;50.096;20.082;2023-06-05T00:22:12;99406.40;;;9.40
67822;BMP180;54434;50.096;20.082;2023-06-05T00:24:48;99404.80;;;9.36
67822;BMP180;54434;50.096;20.082;2023-06-05T00:27:25;99402.20;;;9.32
67822;BMP180;54434;50.096;20.082;2023-06-05T00:30:01;99406.00;;;9.30
67822;BMP180;54434;50.096;20.082;2023-06-05T00:32:38;99401.40;;;9.30
67822;BMP180;54434;50.096;20.082;2023-06-05T00:35:15;99398.40;;;9.30
67822;BMP180;54434;50.096;20.082;2023-06-05T00:37:52;99402.00;;;9.30
67822;BMP180;54434;50.096;20.082;2023-06-05T00:40:29;99399.20;;;9.28
67822;BMP180;54434;50.096;20.082;2023-06-05T00:43:06;99400.80;;;9.20
67822;BMP180;54434;50.096;20.082;2023-06-05T00:45:43;99396.00;;;9.20
67822;BMP180;54434;50.096;20.082;2023-06-05T00:48:21;99397.60;;;9.20
67822;BMP180;54434;50.096;20.082;2023-06-05T00:50:57;99399.40;;;9.20
67822;BMP180;54434;50.096;20.082;2023-06-05T00:53:36;99400.00;;;9.18
67822;BMP180;54434;50.096;20.082;2023-06-05T00:56:14;99402.40;;;9.10
67822;BMP180;54434;50.096;20.082;2023-06-05T00:58:54;99402.40;;;9.10
67822;BMP180;54434;50.096;20.082;2023-06-05T01:01:33;99398.80;;;9.10
67822;BMP180;54434;50.096;20.082;2023-06-05T01:04:11;99397.60;;;9.10
67822;BMP180;54434;50.096;20.082;2023-06-05T01:06:48;99394.00;;;9.10
67822;BMP180;54434;50.096;20.082;2023-06-05T01:09:26;99391.20;;;9.04
67822;BMP180;54434;50.096;20.082;2023-06-05T01:12:09;99391.40;;;9.00
67822;BMP180;54434;50.096;20.082;2023-06-05T01:14:51;99396.00;;;9.00
67822;BMP180;54434;50.096;20.082;2023-06-05T01:17:35;99401.40;;;9.00
67822;BMP180;54434;50.096;20.082;2023-06-05T01:20:14;99399.40;;;9.00
67822;BMP180;54434;50.096;20.082;2023-06-05T01:22:52;99397.60;;;9.00
67822;BMP180;54434;50.096;20.082;2023-06-05T01:25:29;99395.00;;;9.00
67822;BMP180;54434;50.096;20.082;2023-06-05T01:28:13;99392.20;;;8.90
67822;BMP180;54434;50.096;20.082;2023-06-05T01:31:03;99394.60;;;8.90
67822;BMP180;54434;50.096;20.082;2023-06-05T01:33:51;99393.40;;;8.90
67822;BMP180;54434;50.096;20.082;2023-06-05T01:36:33;99391.00;;;8.90
67822;BMP180;54434;50.096;20.082;2023-06-05T01:39:13;99390.00;;;8.86
67822;BMP180;54434;50.096;20.082;2023-06-05T01:41:51;99387.60;;;8.84
67822;BMP180;54434;50.096;20.082;2023-06-05T01:44:29;99390.20;;;8.80
67822;BMP180;54434;50.096;20.082;2023-06-05T01:47:07;99393.20;;;8.80
67822;BMP180;54434;50.096;20.082;2023-06-05T01:49:45;99394.60;;;8.80
67822;BMP180;54434;50.096;20.082;2023-06-05T01:52:22;99391.20;;;8.80
67822;BMP180;54434;50.096;20.082;2023-06-05T01:54:59;99388.00;;;8.72
67822;BMP180;54434;50.096;20.082;2023-06-05T01:57:37;99388.60;;;8.70
67822;BMP180;54434;50.096;20.082;2023-06-05T02:00:15;99386.40;;;8.70
67822;BMP180;54434;50.096;20.082;2023-06-05T02:02:53;99391.80;;;8.66
67822;BMP180;54434;50.096;20.082;2023-06-05T02:05:30;99385.20;;;8.60
67822;BMP180;54434;50.096;20.082;2023-06-05T02:08:07;99391.40;;;8.60
67822;BMP180;54434;50.096;20.082;2023-06-05T02:10:46;99390.00;;;8.52
67822;BMP180;54434;50.096;20.082;2023-06-05T02:13:22;99392.40;;;8.50
67822;BMP180;54434;50.096;20.082;2023-06-05T02:16:00;99392.20;;;8.50
67822;BMP180;54434;50.096;20.082;2023-06-05T02:18:38;99385.00;;;8.48
67822;BMP180;54434;50.096;20.082;2023-06-05T02:21:14;99388.60;;;8.40
67822;BMP180;54434;50.096;20.082;2023-06-05T02:23:50;99390.00;;;8.40
67822;BMP180;54434;50.096;20.082;2023-06-05T02:26:29;99391.60;;;8.40
67822;BMP180;54434;50.096;20.082;2023-06-05T02:29:06;99387.00;;;8.30
67822;BMP180;54434;50.096;20.082;2023-06-05T02:31:42;99386.60;;;8.30
67822;BMP180;54434;50.096;20.082;2023-06-05T02:34:19;99389.20;;;8.30
67822;BMP180;54434;50.096;20.082;2023-06-05T02:36:56;99385.00;;;8.30
67822;BMP180;54434;50.096;20.082;2023-06-05T02:39:32;99385.20;;;8.28
67822;BMP180;54434;50.096;20.082;2023-06-05T02:42:09;99381.20;;;8.22
67822;BMP180;54434;50.096;20.082;2023-06-05T02:44:48;99386.20;;;8.20
67822;BMP180;54434;50.096;20.082;2023-06-05T02:47:24;99385.80;;;8.20
67822;BMP180;54434;50.096;20.082;2023-06-05T02:50:01;99387.40;;;8.20
67822;BMP180;54434;50.096;20.082;2023-06-05T02:52:40;99389.40;;;8.22
67822;BMP180;54434;50.096;20.082;2023-06-05T02:55:21;99389.60;;;8.22
67822;BMP180;54434;50.096;20.082;2023-06-05T04:18:42;99425.20;;;20.02
67822;BMP180;54434;50.096;20.082;2023-06-05T04:21:19;99427.00;;;21.18
67822;BMP180;54434;50.096;20.082;2023-06-05T04:23:57;99425.60;;;21.54
67822;BMP180;54434;50.096;20.082;2023-06-05T04:26:33;99427.20;;;22.08
67822;BMP180;54434;50.096;20.082;2023-06-05T04:29:10;99433.40;;;22.42
67822;BMP180;54434;50.096;20.082;2023-06-05T04:31:51;99432.80;;;22.80
67822;BMP180;54434;50.096;20.082;2023-06-05T04:34:27;99432.00;;;23.00
67822;BMP180;54434;50.096;20.082;2023-06-05T04:37:04;99434.80;;;23.20
67822;BMP180;54434;50.096;20.082;2023-06-05T04:39:41;99437.20;;;23.42
67822;BMP180;54434;50.096;20.082;2023-06-05T04:42:18;99437.00;;;23.60
67822;BMP180;54434;50.096;20.082;2023-06-05T04:45:01;99436.20;;;23.80
67822;BMP180;54434;50.096;20.082;2023-06-05T04:47:39;99441.00;;;23.96
67822;BMP180;54434;50.096;20.082;2023-06-05T04:50:27;99435.40;;;24.14
67822;BMP180;54434;50.096;20.082;2023-06-05T04:53:14;99437.20;;;24.40
67822;BMP180;54434;50.096;20.082;2023-06-05T04:55:52;99436.20;;;24.40
67822;BMP180;54434;50.096;20.082;2023-06-05T04:58:30;99430.40;;;24.10
67822;BMP180;54434;50.096;20.082;2023-06-05T05:01:06;99430.60;;;24.08
67822;BMP180;54434;50.096;20.082;2023-06-05T05:03:46;99430.20;;;24.08
67822;BMP180;54434;50.096;20.082;2023-06-05T05:06:24;99436.40;;;24.10
67822;BMP180;54434;50.096;20.082;2023-06-05T05:09:01;99440.40;;;24.20
67822;BMP180;54434;50.096;20.082;2023-06-05T05:11:41;99434.80;;;24.30
67822;BMP180;54434;50.096;20.082;2023-06-05T05:14:19;99439.00;;;24.40
67822;BMP180;54434;50.096;20.082;2023-06-05T05:16:56;99437.00;;;24.54
67822;BMP180;54434;50.096;20.082;2023-06-05T05:19:33;99441.60;;;24.60
67822;BMP180;54434;50.096;20.082;2023-06-05T05:22:10;99442.20;;;24.70
67822;BMP180;54434;50.096;20.082;2023-06-05T05:24:47;99443.20;;;24.90
67822;BMP180;54434;50.096;20.082;2023-06-05T05:27:23;99441.40;;;24.90
67822;BMP180;54434;50.096;20.082;2023-06-05T05:30:01;99444.20;;;24.90
67822;BMP180;54434;50.096;20.082;2023-06-05T05:32:39;99442.00;;;24.90
67822;BMP180;54434;50.096;20.082;2023-06-05T05:35:18;99443.00;;;25.04
67822;BMP180;54434;50.096;20.082;2023-06-05T05:37:55;99437.40;;;25.20
67822;BMP180;54434;50.096;20.082;2023-06-05T05:40:31;99445.60;;;25.40
67822;BMP180;54434;50.096;20.082;2023-06-05T05:43:08;99444.00;;;25.60
67822;BMP180;54434;50.096;20.082;2023-06-05T05:45:44;99445.20;;;25.84
67822;BMP180;54434;50.096;20.082;2023-06-05T05:48:21;99448.80;;;26.10
67822;BMP180;54434;50.096;20.082;2023-06-05T05:50:58;99448.80;;;26.20
67822;BMP180;54434;50.096;20.082;2023-06-05T05:53:34;99446.80;;;26.30
67822;BMP180;54434;50.096;20.082;2023-06-05T05:56:12;99453.60;;;26.30
67822;BMP180;54434;50.096;20.082;2023-06-05T05:58:49;99452.40;;;26.30
67822;BMP180;54434;50.096;20.082;2023-06-05T06:01:25;99458.80;;;26.44
67822;BMP180;54434;50.096;20.082;2023-06-05T06:04:03;99453.40;;;26.50
67822;BMP180;54434;50.096;20.082;2023-06-05T06:06:39;99453.80;;;26.50
67822;BMP180;54434;50.096;20.082;2023-06-05T06:09:16;99455.20;;;26.60
67822;BMP180;54434;50.096;20.082;2023-06-05T06:11:53;99459.40;;;26.70
67822;BMP180;54434;50.096;20.082;2023-06-05T06:14:30;99458.00;;;26.70
67822;BMP180;54434;50.096;20.082;2023-06-05T06:17:07;99460.60;;;26.80
67822;BMP180;54434;50.096;20.082;2023-06-05T06:19:46;99461.60;;;26.80
67822;BMP180;54434;50.096;20.082;2023-06-05T06:22:23;99463.80;;;27.02
67822;BMP180;54434;50.096;20.082;2023-06-05T06:24:59;99463.40;;;26.96
67822;BMP180;54434;50.096;20.082;2023-06-05T06:27:36;99460.80;;;27.00
67822;BMP180;54434;50.096;20.082;2023-06-05T06:30:14;99462.00;;;27.14
67822;BMP180;54434;50.096;20.082;2023-06-05T06:32:51;99461.80;;;27.52
67822;BMP180;54434;50.096;20.082;2023-06-05T06:35:28;99461.60;;;27.64
67822;BMP180;54434;50.096;20.082;2023-06-05T06:38:06;99463.00;;;27.62
67822;BMP180;54434;50.096;20.082;2023-06-05T06:40:42;99463.00;;;27.88
67822;BMP180;54434;50.096;20.082;2023-06-05T06:43:19;99466.20;;;28.10
67822;BMP180;54434;50.096;20.082;2023-06-05T06:45:58;99459.60;;;28.14
67822;BMP180;54434;50.096;20.082;2023-06-05T06:48:35;99467.60;;;28.50
67822;BMP180;54434;50.096;20.082;2023-06-05T06:51:12;99462.80;;;28.50
67822;BMP180;54434;50.096;20.082;2023-06-05T06:53:49;99459.00;;;28.30
67822;BMP180;54434;50.096;20.082;2023-06-05T06:56:26;99464.00;;;28.40
67822;BMP180;54434;50.096;20.082;2023-06-05T06:59:11;99463.20;;;28.50
67822;BMP180;54434;50.096;20.082;2023-06-05T07:02:09;99467.00;;;28.84
67822;BMP180;54434;50.096;20.082;2023-06-05T07:04:47;99465.20;;;28.82
67822;BMP180;54434;50.096;20.082;2023-06-05T07:07:24;99464.60;;;28.90
67822;BMP180;54434;50.096;20.082;2023-06-05T07:10:01;99466.80;;;28.96
67822;BMP180;54434;50.096;20.082;2023-06-05T07:12:37;99464.80;;;29.00
67822;BMP180;54434;50.096;20.082;2023-06-05T07:15:15;99467.40;;;29.02
67822;BMP180;54434;50.096;20.082;2023-06-05T07:17:51;99465.00;;;29.10
67822;BMP180;54434;50.096;20.082;2023-06-05T07:20:28;99467.40;;;28.98
67822;BMP180;54434;50.096;20.082;2023-06-05T07:23:04;99470.80;;;28.80
67822;BMP180;54434;50.096;20.082;2023-06-05T07:25:40;99465.80;;;28.78
67822;BMP180;54434;50.096;20.082;2023-06-05T07:28:17;99470.20;;;29.00
67822;BMP180;54434;50.096;20.082;2023-06-05T07:30:53;99467.40;;;28.98
67822;BMP180;54434;50.096;20.082;2023-06-05T07:33:31;99470.20;;;29.06
67822;BMP180;54434;50.096;20.082;2023-06-05T07:36:08;99468.00;;;29.12
67822;BMP180;54434;50.096;20.082;2023-06-05T07:38:45;99462.40;;;29.00
67822;BMP180;54434;50.096;20.082;2023-06-05T07:41:22;99464.00;;;28.90
67822;BMP180;54434;50.096;20.082;2023-06-05T07:44:00;99465.40;;;28.86
67822;BMP180;54434;50.096;20.082;2023-06-05T07:46:37;99469.20;;;28.82
67822;BMP180;54434;50.096;20.082;2023-06-05T07:49:15;99464.40;;;29.00
67822;BMP180;54434;50.096;20.082;2023-06-05T07:51:52;99466.40;;;29.10
67822;BMP180;54434;50.096;20.082;2023-06-05T07:54:29;99464.40;;;29.10
67822;BMP180;54434;50.096;20.082;2023-06-05T07:57:06;99465.00;;;29.10
67822;BMP180;54434;50.096;20.082;2023-06-05T07:59:44;99466.80;;;29.30
67822;BMP180;54434;50.096;20.082;2023-06-05T08:02:22;99464.20;;;29.00
67822;BMP180;54434;50.096;20.082;2023-06-05T08:04:59;99465.00;;;28.86
67822;BMP180;54434;50.096;20.082;2023-06-05T08:07:35;99465.60;;;28.62
67822;BMP180;54434;50.096;20.082;2023-06-05T08:10:14;99453.20;;;28.30
67822;BMP180;54434;50.096;20.082;2023-06-05T08:12:50;99450.60;;;28.10
67822;BMP180;54434;50.096;20.082;2023-06-05T08:15:27;99448.40;;;27.98
67822;BMP180;54434;50.096;20.082;2023-06-05T08:18:04;99440.40;;;27.78
67822;BMP180;54434;50.096;20.082;2023-06-05T08:20:41;99442.80;;;27.50
67822;BMP180;54434;50.096;20.082;2023-06-05T08:23:17;99442.80;;;27.60
67822;BMP180;54434;50.096;20.082;2023-06-05T08:25:54;99443.20;;;27.50
67822;BMP180;54434;50.096;20.082;2023-06-05T08:28:30;99444.40;;;27.50
67822;BMP180;54434;50.096;20.082;2023-06-05T08:31:07;99447.80;;;27.24
67822;BMP180;54434;50.096;20.082;2023-06-05T08:33:47;99449.40;;;26.90
67822;BMP180;54434;50.096;20.082;2023-06-05T08:36:24;99448.80;;;26.70
67822;BMP180;54434;50.096;20.082;2023-06-05T08:39:00;99446.40;;;26.30
67822;BMP180;54434;50.096;20.082;2023-06-05T08:41:39;99450.20;;;26.10
67822;BMP180;54434;50.096;20.082;2023-06-05T08:44:17;99442.80;;;25.80
67822;BMP180;54434;50.096;20.082;2023-06-05T08:46:58;99450.40;;;25.50
67822;BMP180;54434;50.096;20.082;2023-06-05T08:49:38;99441.60;;;25.20
67822;BMP180;54434;50.096;20.082;2023-06-05T08:52:19;99442.40;;;25.20
67822;BMP180;54434;50.096;20.082;2023-06-05T08:54:56;99438.40;;;25.00
67822;BMP180;54434;50.096;20.082;2023-06-05T08:57:35;99440.20;;;25.10
67822;BMP180;54434;50.096;20.082;2023-06-05T09:00:15;99436.80;;;25.20
67822;BMP180;54434;50.096;20.082;2023-06-05T09:02:52;99440.80;;;25.10
67822;BMP180;54434;50.096;20.082;2023-06-05T09:05:29;99442.00;;;25.10
67822;BMP180;54434;50.096;20.082;2023-06-05T09:08:06;99438.40;;;24.90
67822;BMP180;54434;50.096;20.082;2023-06-05T09:10:43;99435.60;;;24.70
67822;BMP180;54434;50.096;20.082;2023-06-05T09:13:19;99431.00;;;24.50
67822;BMP180;54434;50.096;20.082;2023-06-05T09:16:00;99428.40;;;24.30
67822;BMP180;54434;50.096;20.082;2023-06-05T09:18:36;99424.00;;;24.20
67822;BMP180;54434;50.096;20.082;2023-06-05T09:21:28;99427.20;;;24.10
67822;BMP180;54434;50.096;20.082;2023-06-05T09:24:20;99426.20;;;24.00
67822;BMP180;54434;50.096;20.082;2023-06-05T09:27:01;99424.40;;;23.90
67822;BMP180;54434;50.096;20.082;2023-06-05T09:29:40;99426.20;;;23.84
67822;BMP180;54434;50.096;20.082;2023-06-05T09:32:23;99429.20;;;23.70
67822;BMP180;54434;50.096;20.082;2023-06-05T09:35:00;99433.60;;;23.70
67822;BMP180;54434;50.096;20.082;2023-06-05T09:37:41;99425.00;;;23.70
67822;BMP180;54434;50.096;20.082;2023-06-05T09:40:39;99421.40;;;23.70
67822;BMP180;54434;50.096;20.082;2023-06-05T09:43:23;99422.20;;;23.64
67822;BMP180;54434;50.096;20.082;2023-06-05T09:46:07;99424.60;;;23.70
67822;BMP180;54434;50.096;20.082;2023-06-05T09:48:57;99430.40;;;23.70
67822;BMP180;54434;50.096;20.082;2023-06-05T09:51:34;99426.20;;;23.72
67822;BMP180;54434;50.096;20.082;2023-06-05T09:54:12;99426.00;;;23.80
67822;BMP180;54434;50.096;20.082;2023-06-05T09:56:51;99422.60;;;23.82
67822;BMP180;54434;50.096;20.082;2023-06-05T09:59:34;99420.00;;;23.88
67822;BMP180;54434;50.096;20.082;2023-06-05T10:02:11;99411.80;;;23.84
67822;BMP180;54434;50.096;20.082;2023-06-05T10:04:59;99410.20;;;23.80
67822;BMP180;54434;50.096;20.082;2023-06-05T10:07:38;99406.20;;;23.84
67822;BMP180;54434;50.096;20.082;2023-06-05T10:10:15;99405.40;;;23.90
67822;BMP180;54434;50.096;20.082;2023-06-05T10:12:53;99403.60;;;23.82
67822;BMP180;54434;50.096;20.082;2023-06-05T10:15:33;99401.00;;;23.80
67822;BMP180;54434;50.096;20.082;2023-06-05T10:18:13;99399.20;;;23.90
67822;BMP180;54434;50.096;20.082;2023-06-05T10:20:50;99404.60;;;23.90
67822;BMP180;54434;50.096;20.082;2023-06-05T10:23:28;99392.40;;;23.90
67822;BMP180;54434;50.096;20.082;2023-06-05T10:26:15;99397.60;;;23.90
67822;BMP180;54434;50.096;20.082;2023-06-05T10:29:19;99389.80;;;23.90
67822;BMP180;54434;50.096;20.082;2023-06-05T10:32:09;99388.20;;;24.02
67822;BMP180;54434;50.096;20.082;2023-06-05T10:35:04;99391.60;;;24.00
67822;BMP180;54434;50.096;20.082;2023-06-05T10:37:59;99389.20;;;23.98
67822;BMP180;54434;50.096;20.082;2023-06-05T10:40:42;99390.40;;;23.92
67822;BMP180;54434;50.096;20.082;2023-06-05T10:43:45;99389.20;;;23.90
67822;BMP180;54434;50.096;20.082;2023-06-05T10:46:37;99388.00;;;23.90
67822;BMP180;54434;50.096;20.082;2023-06-05T10:49:16;99383.60;;;24.00
67822;BMP180;54434;50.096;20.082;2023-06-05T10:51:56;99378.40;;;24.00
67822;BMP180;54434;50.096;20.082;2023-06-05T10:54:58;99374.20;;;24.00
67822;BMP180;54434;50.096;20.082;2023-06-05T10:58:10;99373.40;;;24.10
67822;BMP180;54434;50.096;20.082;2023-06-05T11:01:22;99371.80;;;24.20
67822;BMP180;54434;50.096;20.082;2023-06-05T11:04:01;99372.20;;;24.20
67822;BMP180;54434;50.096;20.082;2023-06-05T11:07:16;99370.20;;;24.30
67822;BMP180;54434;50.096;20.082;2023-06-05T11:10:18;99365.40;;;24.30
67822;BMP180;54434;50.096;20.082;2023-06-05T11:13:04;99364.60;;;24.20
67822;BMP180;54434;50.096;20.082;2023-06-05T11:15:47;99361.20;;;24.20
67822;BMP180;54434;50.096;20.082;2023-06-05T11:18:40;99357.00;;;24.18
67822;BMP180;54434;50.096;20.082;2023-06-05T11:21:17;99362.80;;;24.10
67822;BMP180;54434;50.096;20.082;2023-06-05T11:24:20;99358.00;;;24.18
67822;BMP180;54434;50.096;20.082;2023-06-05T11:26:56;99366.20;;;24.20
67822;BMP180;54434;50.096;20.082;2023-06-05T11:29:33;99363.80;;;24.30
67822;BMP180;54434;50.096;20.082;2023-06-05T11:32:16;99365.60;;;24.40
67822;BMP180;54434;50.096;20.082;2023-06-05T11:34:56;99366.40;;;24.50
67822;BMP180;54434;50.096;20.082;2023-06-05T11:37:34;99357.80;;;24.50
67822;BMP180;54434;50.096;20.082;2023-06-05T11:40:26;99353.60;;;24.50
67822;BMP180;54434;50.096;20.082;2023-06-05T11:43:10;99352.00;;;24.60
67822;BMP180;54434;50.096;20.082;2023-06-05T11:45:55;99356.60;;;24.50
67822;BMP180;54434;50.096;20.082;2023-06-05T11:48:34;99349.20;;;24.40
67822;BMP180;54434;50.096;20.082;2023-06-05T11:51:10;99350.20;;;24.40
67822;BMP180;54434;50.096;20.082;2023-06-05T11:53:50;99346.60;;;24.40
67822;BMP180;54434;50.096;20.082;2023-06-05T11:56:28;99347.00;;;24.50
67822;BMP180;54434;50.096;20.082;2023-06-05T11:59:08;99340.20;;;24.50
67822;BMP180;54434;50.096;20.082;2023-06-05T12:01:46;99341.40;;;24.40
67822;BMP180;54434;50.096;20.082;2023-06-05T12:04:25;99337.60;;;24.40
67822;BMP180;54434;50.096;20.082;2023-06-05T12:07:02;99329.60;;;24.40
67822;BMP180;54434;50.096;20.082;2023-06-05T12:09:39;99338.00;;;24.40
67822;BMP180;54434;50.096;20.082;2023-06-05T12:12:15;99330.80;;;24.40
67822;BMP180;54434;50.096;20.082;2023-06-05T12:14:52;99329.20;;;24.40
67822;BMP180;54434;50.096;20.082;2023-06-05T12:17:29;99324.20;;;24.40
67822;BMP180;54434;50.096;20.082;2023-06-05T12:20:07;99331.40;;;24.38
67822;BMP180;54434;50.096;20.082;2023-06-05T12:22:44;99328.40;;;24.30
67822;BMP180;54434;50.096;20.082;2023-06-05T12:25:22;99328.60;;;24.30
67822;BMP180;54434;50.096;20.082;2023-06-05T12:27:58;99326.80;;;24.30
67822;BMP180;54434;50.096;20.082;2023-06-05T12:30:45;99321.80;;;24.30
67822;BMP180;54434;50.096;20.082;2023-06-05T12:33:21;99321.40;;;24.30
67822;BMP180;54434;50.096;20.082;2023-06-05T12:36:09;99322.00;;;24.30
67822;BMP180;54434;50.096;20.082;2023-06-05T12:38:48;99321.40;;;24.30
67822;BMP180;54434;50.096;20.082;2023-06-05T12:41:25;99321.00;;;24.30
67822;BMP180;54434;50.096;20.082;2023-06-05T12:44:06;99314.60;;;24.30
67822;BMP180;54434;50.096;20.082;2023-06-05T12:46:43;99307.80;;;24.40
67822;BMP180;54434;50.096;20.082;2023-06-05T12:49:19;99308.20;;;24.40
67822;BMP180;54434;50.096;20.082;2023-06-05T12:51:56;99306.80;;;24.50
67822;BMP180;54434;50.096;20.082;2023-06-05T12:54:33;99301.40;;;24.60
67822;BMP180;54434;50.096;20.082;2023-06-05T12:57:10;99298.00;;;24.60
67822;BMP180;54434;50.096;20.082;2023-06-05T12:59:47;99296.60;;;24.70
67822;BMP180;54434;50.096;20.082;2023-06-05T13:02:24;99289.60;;;24.70
67822;BMP180;54434;50.096;20.082;2023-06-05T13:05:01;99284.20;;;24.70
67822;BMP180;54434;50.096;20.082;2023-06-05T13:07:38;99285.40;;;24.80
67822;BMP180;54434;50.096;20.082;2023-06-05T13:10:15;99284.20;;;24.80
67822;BMP180;54434;50.096;20.082;2023-06-05T13:12:52;99277.80;;;24.76
67822;BMP180;54434;50.096;20.082;2023-06-05T13:15:28;99279.60;;;24.70
67822;BMP180;54434;50.096;20.082;2023-06-05T13:18:06;99279.80;;;24.70
67822;BMP180;54434;50.096;20.082;2023-06-05T13:20:44;99270.20;;;24.70
67822;BMP180;54434;50.096;20.082;2023-06-05T13:23:21;99270.80;;;24.70
67822;BMP180;54434;50.096;20.082;2023-06-05T13:25:58;99265.60;;;24.66
67822;BMP180;54434;50.096;20.082;2023-06-05T13:28:34;99257.40;;;24.60
67822;BMP180;54434;50.096;20.082;2023-06-05T13:31:11;99255.60;;;24.60
67822;BMP180;54434;50.096;20.082;2023-06-05T13:33:48;99253.20;;;24.60
67822;BMP180;54434;50.096;20.082;2023-06-05T13:36:25;99249.80;;;24.70
67822;BMP180;54434;50.096;20.082;2023-06-05T13:39:01;99249.00;;;24.60
67822;BMP180;54434;50.096;20.082;2023-06-05T13:41:39;99249.80;;;24.60
67822;BMP180;54434;50.096;20.082;2023-06-05T13:44:15;99254.40;;;24.60
67822;BMP180;54434;50.096;20.082;2023-06-05T13:46:52;99249.60;;;24.64
67822;BMP180;54434;50.096;20.082;2023-06-05T13:49:29;99244.80;;;24.60
67822;BMP180;54434;50.096;20.082;2023-06-05T13:52:07;99242.60;;;24.60
67822;BMP180;54434;50.096;20.082;2023-06-05T13:54:43;99243.40;;;24.60
67822;BMP180;54434;50.096;20.082;2023-06-05T13:57:20;99241.60;;;24.70
67822;BMP180;54434;50.096;20.082;2023-06-05T13:59:56;99238.00;;;24.70
67822;BMP180;54434;50.096;20.082;2023-06-05T14:02:33;99236.40;;;24.60
67822;BMP180;54434;50.096;20.082;2023-06-05T14:05:11;99230.00;;;24.60
67822;BMP180;54434;50.096;20.082;2023-06-05T14:07:47;99235.80;;;24.70
67822;BMP180;54434;50.096;20.082;2023-06-05T14:10:26;99229.60;;;24.70
67822;BMP180;54434;50.096;20.082;2023-06-05T14:13:03;99234.20;;;24.60
67822;BMP180;54434;50.096;20.082;2023-06-05T14:15:40;99227.80;;;24.60
67822;BMP180;54434;50.096;20.082;2023-06-05T14:18:16;99227.60;;;24.62
67822;BMP180;54434;50.096;20.082;2023-06-05T14:20:52;99226.20;;;24.60
67822;BMP180;54434;50.096;20.082;2023-06-05T14:23:29;99227.40;;;24.60
67822;BMP180;54434;50.096;20.082;2023-06-05T14:26:05;99222.80;;;24.50
67822;BMP180;54434;50.096;20.082;2023-06-05T14:28:42;99221.80;;;24.32
67822;BMP180;54434;50.096;20.082;2023-06-05T14:31:19;99219.00;;;24.30
67822;BMP180;54434;50.096;20.082;2023-06-05T14:34:00;99214.20;;;24.20
67822;BMP180;54434;50.096;20.082;2023-06-05T14:36:37;99216.20;;;24.20
67822;BMP180;54434;50.096;20.082;2023-06-05T14:39:14;99210.60;;;24.30
67822;BMP180;54434;50.096;20.082;2023-06-05T14:41:52;99208.00;;;24.26
67822;BMP180;54434;50.096;20.082;2023-06-05T14:44:28;99206.00;;;24.20
67822;BMP180;54434;50.096;20.082;2023-06-05T14:47:06;99203.60;;;24.20
67822;BMP180;54434;50.096;20.082;2023-06-05T14:49:42;99200.80;;;24.10
67822;BMP180;54434;50.096;20.082;2023-06-05T14:52:19;99199.20;;;24.00
67822;BMP180;54434;50.096;20.082;2023-06-05T14:54:55;99202.00;;;23.90
67822;BMP180;54434;50.096;20.082;2023-06-05T14:57:41;99197.00;;;23.80
67822;BMP180;54434;50.096;20.082;2023-06-05T15:00:19;99196.40;;;23.70
67822;BMP180;54434;50.096;20.082;2023-06-05T15:02:56;99193.60;;;23.70
67822;BMP180;54434;50.096;20.082;2023-06-05T15:05:32;99196.60;;;23.60
67822;BMP180;54434;50.096;20.082;2023-06-05T15:08:10;99202.60;;;23.60
67822;BMP180;54434;50.096;20.082;2023-06-05T15:10:46;99201.20;;;23.70
67822;BMP180;54434;50.096;20.082;2023-06-05T15:13:23;99200.80;;;23.70
67822;BMP180;54434;50.096;20.082;2023-06-05T15:15:59;99200.80;;;23.70
67822;BMP180;54434;50.096;20.082;2023-06-05T15:18:36;99200.40;;;23.80
67822;BMP180;54434;50.096;20.082;2023-06-05T15:21:12;99201.80;;;23.88
67822;BMP180;54434;50.096;20.082;2023-06-05T15:23:49;99202.40;;;23.90
67822;BMP180;54434;50.096;20.082;2023-06-05T15:26:25;99200.60;;;24.00
67822;BMP180;54434;50.096;20.082;2023-06-05T15:29:02;99194.60;;;24.00
67822;BMP180;54434;50.096;20.082;2023-06-05T15:31:39;99191.60;;;24.10
67822;BMP180;54434;50.096;20.082;2023-06-05T15:34:15;99191.00;;;24.10
67822;BMP180;54434;50.096;20.082;2023-06-05T15:36:52;99192.60;;;24.20
67822;BMP180;54434;50.096;20.082;2023-06-05T15:39:28;99190.60;;;24.20
67822;BMP180;54434;50.096;20.082;2023-06-05T15:42:05;99189.60;;;24.20
67822;BMP180;54434;50.096;20.082;2023-06-05T15:44:42;99185.60;;;24.20
67822;BMP180;54434;50.096;20.082;2023-06-05T15:47:19;99186.20;;;24.10
67822;BMP180;54434;50.096;20.082;2023-06-05T15:49:55;99187.60;;;24.00
67822;BMP180;54434;50.096;20.082;2023-06-05T15:52:32;99189.20;;;23.98
67822;BMP180;54434;50.096;20.082;2023-06-05T15:55:11;99189.40;;;23.90
67822;BMP180;54434;50.096;20.082;2023-06-05T15:57:47;99189.00;;;23.80
67822;BMP180;54434;50.096;20.082;2023-06-05T16:00:24;99189.40;;;23.80
67822;BMP180;54434;50.096;20.082;2023-06-05T16:03:02;99188.80;;;23.70
67822;BMP180;54434;50.096;20.082;2023-06-05T16:05:38;99188.60;;;23.70
67822;BMP180;54434;50.096;20.082;2023-06-05T16:08:15;99187.40;;;23.70
67822;BMP180;54434;50.096;20.082;2023-06-05T16:10:54;99187.20;;;23.70
67822;BMP180;54434;50.096;20.082;2023-06-05T16:13:32;99187.40;;;23.60
67822;BMP180;54434;50.096;20.082;2023-06-05T16:16:08;99187.80;;;23.60
67822;BMP180;54434;50.096;20.082;2023-06-05T16:18:45;99188.80;;;23.60
67822;BMP180;54434;50.096;20.082;2023-06-05T16:21:21;99187.60;;;23.60
67822;BMP180;54434;50.096;20.082;2023-06-05T16:23:58;99188.00;;;23.60
67822;BMP180;54434;50.096;20.082;2023-06-05T16:26:35;99186.60;;;23.58